sensor_id;sensor_type;location;lat;lon;timestamp;pressure;altitude;pressure_sealevel;temperature;humidity
70750;BME280;58342;45.568;10.008;2023-01-27T09:28:03;100098.22;;;21.24;40.57
70750;BME280;58342;45.568;10.008;2023-01-27T11:07:55;100118.72;;;22.06;39.97
70750;BME280;58342;45.568;10.008;2023-01-27T11:10:29;100120.28;;;22.04;40.05
70750;BME280;58342;45.568;10.008;2023-01-27T11:12:58;100110.72;;;22.03;40.15
70750;BME280;58342;45.568;10.008;2023-01-27T11:15:28;100116.13;;;21.99;40.14
70750;BME280;58342;45.568;10.008;2023-01-27T11:18:14;100119.56;;;21.96;40.26
70750;BME280;58342;45.568;10.008;2023-01-27T11:20:51;100119.25;;;21.87;40.45
70750;BME280;58342;45.568;10.008;2023-01-27T11:23:43;100114.00;;;21.77;40.77
70750;BME280;58342;45.568;10.008;2023-01-27T11:36:55;100103.88;;;21.37;41.75
70750;BME280;58342;45.568;10.008;2023-01-27T11:39:36;100107.34;;;21.34;41.88
70750;BME280;58342;45.568;10.008;2023-01-27T11:42:10;100103.91;;;21.30;41.89
70750;BME280;58342;45.568;10.008;2023-01-27T11:44:44;100104.31;;;21.25;42.02
70750;BME280;58342;45.568;10.008;2023-01-27T11:47:24;100081.09;;;21.11;42.22
70750;BME280;58342;45.568;10.008;2023-01-27T11:50:00;100097.06;;;21.22;42.29
70750;BME280;58342;45.568;10.008;2023-01-27T11:52:30;100087.16;;;21.19;42.42
70750;BME280;58342;45.568;10.008;2023-01-27T11:55:18;100080.69;;;21.16;42.25
70750;BME280;58342;45.568;10.008;2023-01-27T11:58:29;100090.22;;;21.17;42.37
70750;BME280;58342;45.568;10.008;2023-01-27T12:00:58;100090.97;;;21.14;42.66
70750;BME280;58342;45.568;10.008;2023-01-27T12:03:48;100081.44;;;21.13;42.57
70750;BME280;58342;45.568;10.008;2023-01-27T12:06:43;100077.25;;;21.12;42.60
70750;BME280;58342;45.568;10.008;2023-01-27T12:09:34;100076.88;;;21.10;42.82
70750;BME280;58342;45.568;10.008;2023-01-27T12:15:12;100074.19;;;21.10;42.77
70750;BME280;58342;45.568;10.008;2023-01-27T12:17:51;100060.09;;;21.10;42.79
70750;BME280;58342;45.568;10.008;2023-01-27T12:22:58;100055.91;;;21.09;43.02
70750;BME280;58342;45.568;10.008;2023-01-27T12:25:44;100053.97;;;21.09;42.83
70750;BME280;58342;45.568;10.008;2023-01-27T12:28:29;100051.28;;;21.09;42.91
70750;BME280;58342;45.568;10.008;2023-01-27T12:34:06;100047.47;;;21.10;43.09
70750;BME280;58342;45.568;10.008;2023-01-27T12:36:43;100039.44;;;21.10;43.07
70750;BME280;58342;45.568;10.008;2023-01-27T12:39:29;100043.66;;;21.11;43.07
70750;BME280;58342;45.568;10.008;2023-01-27T12:42:03;100046.34;;;21.08;43.11
70750;BME280;58342;45.568;10.008;2023-01-27T12:44:44;100046.72;;;21.10;43.08
70750;BME280;58342;45.568;10.008;2023-01-27T12:47:33;100039.47;;;21.07;43.27
70750;BME280;58342;45.568;10.008;2023-01-27T12:50:24;100040.25;;;21.07;43.25
70750;BME280;58342;45.568;10.008;2023-01-27T12:55:36;100034.13;;;21.07;43.36
70750;BME280;58342;45.568;10.008;2023-01-27T13:01:03;100034.09;;;21.10;43.28
70750;BME280;58342;45.568;10.008;2023-01-27T13:03:39;100026.09;;;21.10;43.30
70750;BME280;58342;45.568;10.008;2023-01-27T13:06:09;100022.28;;;21.11;43.40
70750;BME280;58342;45.568;10.008;2023-01-27T13:08:43;100026.09;;;21.10;43.48
70750;BME280;58342;45.568;10.008;2023-01-27T13:11:14;100004.75;;;21.00;43.36
70750;BME280;58342;45.568;10.008;2023-01-27T13:13:51;100029.91;;;21.09;43.33
70750;BME280;58342;45.568;10.008;2023-01-27T13:16:26;100027.63;;;21.11;43.24
70750;BME280;58342;45.568;10.008;2023-01-27T13:18:58;100033.72;;;21.12;43.31
70750;BME280;58342;45.568;10.008;2023-01-27T13:21:38;100029.13;;;21.12;43.41
70750;BME280;58342;45.568;10.008;2023-01-27T13:24:21;100036.38;;;21.15;43.32
70750;BME280;58342;45.568;10.008;2023-01-27T13:26:54;100024.16;;;21.14;43.58
70750;BME280;58342;45.568;10.008;2023-01-27T13:29:25;100024.50;;;21.20;43.58
70750;BME280;58342;45.568;10.008;2023-01-27T13:32:04;100022.53;;;21.31;43.49
70750;BME280;58342;45.568;10.008;2023-01-27T13:34:46;100023.19;;;21.49;43.22
70750;BME280;58342;45.568;10.008;2023-01-27T13:42:16;100024.56;;;21.71;42.80
70750;BME280;58342;45.568;10.008;2023-01-27T13:44:49;100018.03;;;21.75;42.68
70750;BME280;58342;45.568;10.008;2023-01-27T13:47:23;100013.44;;;21.79;42.48
70750;BME280;58342;45.568;10.008;2023-01-27T13:49:56;100019.50;;;21.83;42.56
70750;BME280;58342;45.568;10.008;2023-01-27T13:52:25;100024.09;;;21.83;42.52
70750;BME280;58342;45.568;10.008;2023-01-27T13:54:51;100022.53;;;21.89;42.39
70750;BME280;58342;45.568;10.008;2023-01-27T14:06:02;100016.75;;;21.94;42.13
70750;BME280;58342;45.568;10.008;2023-01-27T14:08:49;100024.81;;;21.87;42.17
70750;BME280;58342;45.568;10.008;2023-01-27T14:11:26;100026.75;;;21.83;43.34
70750;BME280;58342;45.568;10.008;2023-01-27T14:14:19;100024.78;;;21.90;42.45
70750;BME280;58342;45.568;10.008;2023-01-27T14:23:05;100026.13;;;22.12;42.03
70750;BME280;58342;45.568;10.008;2023-01-27T14:31:33;100017.38;;;22.08;41.88
70750;BME280;58342;45.568;10.008;2023-01-27T14:34:07;100014.41;;;21.99;41.93
70750;BME280;58342;45.568;10.008;2023-01-27T14:36:56;100013.25;;;22.00;41.94
70750;BME280;58342;45.568;10.008;2023-01-27T14:42:23;100020.03;;;22.08;41.79
70750;BME280;58342;45.568;10.008;2023-01-27T14:50:12;99997.34;;;22.20;41.42
70750;BME280;58342;45.568;10.008;2023-01-27T14:55:41;100009.56;;;22.24;41.58
70750;BME280;58342;45.568;10.008;2023-01-27T14:58:41;100006.16;;;22.20;41.56
70750;BME280;58342;45.568;10.008;2023-01-27T15:01:28;100018.06;;;22.16;41.78
70750;BME280;58342;45.568;10.008;2023-01-27T15:04:09;100011.53;;;22.20;41.71
70750;BME280;58342;45.568;10.008;2023-01-27T15:26:02;100023.50;;;22.46;41.13
70750;BME280;58342;45.568;10.008;2023-01-27T15:28:32;100024.63;;;22.45;41.11
70750;BME280;58342;45.568;10.008;2023-01-27T15:31:20;100024.25;;;22.43;41.11
70750;BME280;58342;45.568;10.008;2023-01-27T15:36:37;100026.38;;;22.28;41.55
70750;BME280;58342;45.568;10.008;2023-01-27T15:39:18;100028.31;;;22.24;41.81
70750;BME280;58342;45.568;10.008;2023-01-27T15:44:32;100034.81;;;22.23;41.88
70750;BME280;58342;45.568;10.008;2023-01-27T15:47:31;100039.03;;;22.21;41.87
70750;BME280;58342;45.568;10.008;2023-01-27T15:50:31;100039.03;;;22.21;42.04
70750;BME280;58342;45.568;10.008;2023-01-27T15:53:11;100042.53;;;22.18;42.09
70750;BME280;58342;45.568;10.008;2023-01-27T15:55:49;100038.31;;;22.17;41.99
70750;BME280;58342;45.568;10.008;2023-01-27T15:58:38;100047.13;;;22.17;42.24
70750;BME280;58342;45.568;10.008;2023-01-27T16:01:25;100045.63;;;22.13;42.10
70750;BME280;58342;45.568;10.008;2023-01-27T16:04:16;100044.47;;;22.14;42.07
70750;BME280;58342;45.568;10.008;2023-01-27T16:06:58;100039.88;;;22.14;42.24
70750;BME280;58342;45.568;10.008;2023-01-27T16:09:47;100049.03;;;22.17;42.24
70750;BME280;58342;45.568;10.008;2023-01-27T16:12:41;100057.44;;;22.15;42.25
70750;BME280;58342;45.568;10.008;2023-01-27T16:21:06;100060.13;;;22.15;42.32
70750;BME280;58342;45.568;10.008;2023-01-27T16:23:59;100052.88;;;22.16;42.43
70750;BME280;58342;45.568;10.008;2023-01-27T16:32:40;100058.59;;;22.14;42.42
70750;BME280;58342;45.568;10.008;2023-01-27T16:35:19;100070.09;;;22.15;42.41
70750;BME280;58342;45.568;10.008;2023-01-27T16:40:48;100079.25;;;22.17;42.44
70750;BME280;58342;45.568;10.008;2023-01-27T16:43:32;100079.63;;;22.16;42.53
70750;BME280;58342;45.568;10.008;2023-01-27T16:51:38;100079.63;;;22.16;42.43
70750;BME280;58342;45.568;10.008;2023-01-27T16:54:22;100089.56;;;22.15;42.54
70750;BME280;58342;45.568;10.008;2023-01-27T16:56:53;100083.84;;;22.17;42.46
70750;BME280;58342;45.568;10.008;2023-01-27T16:59:28;100086.50;;;22.17;42.58
70750;BME280;58342;45.568;10.008;2023-01-27T17:02:21;100089.19;;;22.20;42.49
70750;BME280;58342;45.568;10.008;2023-01-27T17:04:56;100091.84;;;22.20;42.45
70750;BME280;58342;45.568;10.008;2023-01-27T17:07:28;100092.59;;;22.21;42.41
70750;BME280;58342;45.568;10.008;2023-01-27T17:09:58;100095.28;;;22.21;42.43
70750;BME280;58342;45.568;10.008;2023-01-27T17:12:41;100099.47;;;22.22;42.47
70750;BME280;58342;45.568;10.008;2023-01-27T17:15:27;100103.31;;;22.21;42.50
70750;BME280;58342;45.568;10.008;2023-01-27T17:17:58;100111.72;;;22.23;42.46
70750;BME280;58342;45.568;10.008;2023-01-27T17:20:33;100111.72;;;22.23;42.51
70750;BME280;58342;45.568;10.008;2023-01-27T17:23:32;100118.59;;;22.24;42.42
70750;BME280;58342;45.568;10.008;2023-01-27T17:31:06;100111.34;;;22.24;42.53
70750;BME280;58342;45.568;10.008;2023-01-27T17:33:38;100118.19;;;22.25;42.45
70750;BME280;58342;45.568;10.008;2023-01-27T17:36:10;100121.22;;;22.27;42.40
70750;BME280;58342;45.568;10.008;2023-01-27T17:41:33;100116.66;;;22.28;42.51
70750;BME280;58342;45.568;10.008;2023-01-27T17:44:14;100118.56;;;22.27;42.48
70750;BME280;58342;45.568;10.008;2023-01-27T17:46:47;100117.03;;;22.26;42.40
70750;BME280;58342;45.568;10.008;2023-01-27T17:49:18;100118.19;;;22.25;42.52
70750;BME280;58342;45.568;10.008;2023-01-27T17:51:50;100113.97;;;22.28;42.45
70750;BME280;58342;45.568;10.008;2023-01-27T17:54:24;100120.50;;;22.27;40.97
70750;BME280;58342;45.568;10.008;2023-01-27T17:57:25;100121.66;;;22.22;40.85
70750;BME280;58342;45.568;10.008;2023-01-27T18:02:42;100125.56;;;22.14;39.48
70750;BME280;58342;45.568;10.008;2023-01-27T18:05:23;100121.78;;;22.08;40.24
70750;BME280;58342;45.568;10.008;2023-01-27T18:07:55;100129.81;;;22.05;40.36
70750;BME280;58342;45.568;10.008;2023-01-27T18:16:17;100141.72;;;22.00;40.83
70750;BME280;58342;45.568;10.008;2023-01-27T18:19:03;100140.97;;;22.00;40.89
70750;BME280;58342;45.568;10.008;2023-01-27T18:21:40;100142.91;;;21.99;40.85
70750;BME280;58342;45.568;10.008;2023-01-27T18:24:28;100145.19;;;21.97;41.00
70750;BME280;58342;45.568;10.008;2023-01-27T18:26:56;100150.94;;;21.99;40.99
70750;BME280;58342;45.568;10.008;2023-01-27T18:29:36;100150.16;;;21.99;41.16
70750;BME280;58342;45.568;10.008;2023-01-27T18:32:24;100159.34;;;21.98;41.11
70750;BME280;58342;45.568;10.008;2023-01-27T18:34:57;100157.09;;;21.89;41.07
70750;BME280;58342;45.568;10.008;2023-01-27T18:40:26;100174.63;;;21.97;41.24
70750;BME280;58342;45.568;10.008;2023-01-27T18:42:56;100173.88;;;21.97;41.20
70750;BME280;58342;45.568;10.008;2023-01-27T18:45:25;100169.66;;;21.96;41.27
70750;BME280;58342;45.568;10.008;2023-01-27T18:47:55;100171.59;;;21.95;41.32
70750;BME280;58342;45.568;10.008;2023-01-27T18:50:25;100174.28;;;21.95;41.30
70750;BME280;58342;45.568;10.008;2023-01-27T18:53:14;100178.47;;;21.96;41.49
70750;BME280;58342;45.568;10.008;2023-01-27T18:55:42;100184.59;;;21.97;41.32
70750;BME280;58342;45.568;10.008;2023-01-27T18:58:09;100176.94;;;21.95;41.43
70750;BME280;58342;45.568;10.008;2023-01-27T19:00:52;100184.59;;;21.97;41.70
70750;BME280;58342;45.568;10.008;2023-01-27T19:03:23;100189.19;;;21.96;41.41
70750;BME280;58342;45.568;10.008;2023-01-27T19:05:53;100187.28;;;21.97;41.57
70750;BME280;58342;45.568;10.008;2023-01-27T19:08:23;100189.19;;;21.96;41.56
70750;BME280;58342;45.568;10.008;2023-01-27T19:10:53;100189.56;;;21.95;41.43
70750;BME280;58342;45.568;10.008;2023-01-27T19:13:22;100198.38;;;21.95;41.51
70750;BME280;58342;45.568;10.008;2023-01-27T19:15:54;100204.06;;;21.97;41.56
70750;BME280;58342;45.568;10.008;2023-01-27T19:18:37;100201.78;;;21.96;41.53
70750;BME280;58342;45.568;10.008;2023-01-27T19:21:04;100204.47;;;21.96;41.66
70750;BME280;58342;45.568;10.008;2023-01-27T19:23:31;100204.84;;;21.98;41.63
70750;BME280;58342;45.568;10.008;2023-01-27T19:26:02;100203.72;;;21.95;41.52
70750;BME280;58342;45.568;10.008;2023-01-27T19:28:36;100213.28;;;21.96;41.71
70750;BME280;58342;45.568;10.008;2023-01-27T19:31:06;100207.53;;;21.98;41.64
70750;BME280;58342;45.568;10.008;2023-01-27T19:33:34;100216.72;;;21.97;41.54
70750;BME280;58342;45.568;10.008;2023-01-27T19:36:28;100213.66;;;21.95;41.76
70750;BME280;58342;45.568;10.008;2023-01-27T19:41:36;100225.50;;;21.97;41.65
70750;BME280;58342;45.568;10.008;2023-01-27T19:44:04;100225.88;;;21.96;41.64
70750;BME280;58342;45.568;10.008;2023-01-27T19:46:32;100227.03;;;21.95;41.67
70750;BME280;58342;45.568;10.008;2023-01-27T19:48:59;100229.34;;;21.96;41.76
70750;BME280;58342;45.568;10.008;2023-01-27T19:51:27;100235.06;;;21.95;41.74
70750;BME280;58342;45.568;10.008;2023-01-27T19:53:56;100226.69;;;21.93;41.72
70750;BME280;58342;45.568;10.008;2023-01-27T19:56:29;100226.25;;;21.94;41.75
70750;BME280;58342;45.568;10.008;2023-01-27T19:58:59;100230.50;;;21.95;41.79
70750;BME280;58342;45.568;10.008;2023-01-27T20:01:30;100227.03;;;21.95;41.72
70750;BME280;58342;45.568;10.008;2023-01-27T20:04:01;100230.50;;;21.95;41.65
70750;BME280;58342;45.568;10.008;2023-01-27T20:06:29;100233.16;;;21.92;41.75
70750;BME280;58342;45.568;10.008;2023-01-27T20:08:58;100244.66;;;21.92;41.73
70750;BME280;58342;45.568;10.008;2023-01-27T20:11:39;100241.59;;;21.94;41.80
70750;BME280;58342;45.568;10.008;2023-01-27T20:14:16;100235.47;;;21.93;41.69
70750;BME280;58342;45.568;10.008;2023-01-27T20:16:54;100245.81;;;21.91;41.82
70750;BME280;58342;45.568;10.008;2023-01-27T20:22:30;100248.09;;;21.89;41.77
70750;BME280;58342;45.568;10.008;2023-01-27T20:25:26;100248.09;;;21.89;41.94
70750;BME280;58342;45.568;10.008;2023-01-27T20:31:14;100248.13;;;21.86;42.05
70750;BME280;58342;45.568;10.008;2023-01-27T20:33:50;100249.66;;;21.83;41.98
70750;BME280;58342;45.568;10.008;2023-01-27T20:49:12;100253.88;;;21.81;42.15
70750;BME280;58342;45.568;10.008;2023-01-27T20:51:47;100268.78;;;21.82;42.07
70750;BME280;58342;45.568;10.008;2023-01-27T20:54:41;100266.50;;;21.80;42.07
70750;BME280;58342;45.568;10.008;2023-01-27T20:57:13;100264.97;;;21.79;42.04
70750;BME280;58342;45.568;10.008;2023-01-27T20:59:48;100265.72;;;21.80;42.33
70750;BME280;58342;45.568;10.008;2023-01-27T21:02:16;100271.06;;;21.87;42.17
70750;BME280;58342;45.568;10.008;2023-01-27T21:04:44;100270.28;;;21.90;42.06
70750;BME280;58342;45.568;10.008;2023-01-27T21:07:11;100270.63;;;21.92;42.06
70750;BME280;58342;45.568;10.008;2023-01-27T21:09:38;100274.50;;;21.84;41.76
70750;BME280;58342;45.568;10.008;2023-01-27T21:12:09;100264.94;;;21.83;42.11
70750;BME280;58342;45.568;10.008;2023-01-27T21:14:47;100269.56;;;21.82;42.12
70750;BME280;58342;45.568;10.008;2023-01-27T21:17:35;100271.50;;;21.78;42.23
70750;BME280;58342;45.568;10.008;2023-01-27T21:20:11;100267.25;;;21.77;42.29
70750;BME280;58342;45.568;10.008;2023-01-27T21:22:50;100281.06;;;21.76;42.30
70750;BME280;58342;45.568;10.008;2023-01-27T21:25:34;100278.00;;;21.74;42.35
70750;BME280;58342;45.568;10.008;2023-01-27T21:28:11;100276.84;;;21.71;42.41
70750;BME280;58342;45.568;10.008;2023-01-27T21:30:53;100276.84;;;21.71;42.32
70750;BME280;58342;45.568;10.008;2023-01-27T21:36:15;100274.56;;;21.66;42.53
70750;BME280;58342;45.568;10.008;2023-01-27T21:38:56;100281.03;;;21.69;42.60
70750;BME280;58342;45.568;10.008;2023-01-27T21:41:34;100294.81;;;21.67;42.60
70750;BME280;58342;45.568;10.008;2023-01-27T21:44:27;100284.50;;;21.66;42.54
70750;BME280;58342;45.568;10.008;2023-01-27T21:47:16;100292.16;;;21.64;42.76
70750;BME280;58342;45.568;10.008;2023-01-27T21:49:52;100283.34;;;21.63;42.83
70750;BME280;58342;45.568;10.008;2023-01-27T21:55:50;100288.72;;;21.60;42.83
70750;BME280;58342;45.568;10.008;2023-01-27T21:58:23;100292.16;;;21.60;42.82
70750;BME280;58342;45.568;10.008;2023-01-27T22:01:09;100301.31;;;21.59;42.97
70750;BME280;58342;45.568;10.008;2023-01-27T22:03:41;100300.56;;;21.59;42.88
70750;BME280;58342;45.568;10.008;2023-01-27T22:06:21;100299.81;;;21.58;42.96
70750;BME280;58342;45.568;10.008;2023-01-27T22:09:10;100301.72;;;21.58;43.36
70750;BME280;58342;45.568;10.008;2023-01-27T22:11:40;100294.47;;;21.58;43.77
70750;BME280;58342;45.568;10.008;2023-01-27T22:14:09;100295.63;;;21.57;43.91
70750;BME280;58342;45.568;10.008;2023-01-27T22:16:43;100286.03;;;21.56;44.17
70750;BME280;58342;45.568;10.008;2023-01-27T22:19:19;100299.41;;;21.56;44.46
70750;BME280;58342;45.568;10.008;2023-01-27T22:21:48;100307.44;;;21.56;44.50
70750;BME280;58342;45.568;10.008;2023-01-27T22:24:15;100300.97;;;21.54;44.84
70750;BME280;58342;45.568;10.008;2023-01-27T22:26:45;100300.19;;;21.50;44.82
70750;BME280;58342;45.568;10.008;2023-01-27T22:29:20;100312.44;;;21.54;44.89
70750;BME280;58342;45.568;10.008;2023-01-27T22:31:47;100306.69;;;21.52;45.10
70750;BME280;58342;45.568;10.008;2023-01-27T22:34:18;100307.09;;;21.51;45.33
70750;BME280;58342;45.568;10.008;2023-01-27T22:36:52;100305.94;;;21.48;45.64
70750;BME280;58342;45.568;10.008;2023-01-27T22:39:26;100302.50;;;21.48;45.69
70750;BME280;58342;45.568;10.008;2023-01-27T22:42:02;100304.78;;;21.46;45.77
70750;BME280;58342;45.568;10.008;2023-01-27T22:44:33;100305.59;;;21.43;45.79
70750;BME280;58342;45.568;10.008;2023-01-27T22:47:03;100302.13;;;21.42;46.04
70750;BME280;58342;45.568;10.008;2023-01-27T22:49:32;100300.59;;;21.45;46.29
70750;BME280;58342;45.568;10.008;2023-01-27T22:52:08;100306.34;;;21.43;46.29
70750;BME280;58342;45.568;10.008;2023-01-27T22:54:36;100301.38;;;21.42;46.42
70750;BME280;58342;45.568;10.008;2023-01-27T22:57:04;100304.81;;;21.42;46.37
70750;BME280;58342;45.568;10.008;2023-01-27T22:59:31;100297.94;;;21.41;46.54
70750;BME280;58342;45.568;10.008;2023-01-27T23:01:58;100297.16;;;21.41;46.73
70750;BME280;58342;45.568;10.008;2023-01-27T23:04:25;100298.31;;;21.40;46.74
70750;BME280;58342;45.568;10.008;2023-01-27T23:06:54;100305.59;;;21.36;46.80
70750;BME280;58342;45.568;10.008;2023-01-27T23:09:28;100308.63;;;21.38;46.99
70750;BME280;58342;45.568;10.008;2023-01-27T23:11:56;100301.00;;;21.33;47.01
70750;BME280;58342;45.568;10.008;2023-01-27T23:14:23;100304.84;;;21.32;47.07
70750;BME280;58342;45.568;10.008;2023-01-27T23:16:50;100316.66;;;21.34;47.23
70750;BME280;58342;45.568;10.008;2023-01-27T23:19:20;100304.06;;;21.31;47.41
70750;BME280;58342;45.568;10.008;2023-01-27T23:21:48;100309.03;;;21.29;47.29
70750;BME280;58342;45.568;10.008;2023-01-27T23:24:16;100307.50;;;21.32;47.38
70750;BME280;58342;45.568;10.008;2023-01-27T23:26:43;100309.03;;;21.29;47.60
70750;BME280;58342;45.568;10.008;2023-01-27T23:29:12;100292.59;;;21.27;47.62
70750;BME280;58342;45.568;10.008;2023-01-27T23:31:41;100302.19;;;21.28;47.64
70750;BME280;58342;45.568;10.008;2023-01-27T23:34:10;100301.78;;;21.26;47.85
70750;BME280;58342;45.568;10.008;2023-01-27T23:36:40;100305.63;;;21.25;47.95
70750;BME280;58342;45.568;10.008;2023-01-27T23:39:13;100309.44;;;21.24;47.92
70750;BME280;58342;45.568;10.008;2023-01-27T23:41:41;100305.25;;;21.23;47.95
70750;BME280;58342;45.568;10.008;2023-01-27T23:44:11;100304.47;;;21.23;47.96
70750;BME280;58342;45.568;10.008;2023-01-27T23:46:39;100300.28;;;21.22;48.19
70750;BME280;58342;45.568;10.008;2023-01-27T23:49:09;100295.69;;;21.19;48.25
70750;BME280;58342;45.568;10.008;2023-01-27T23:51:40;100303.72;;;21.19;48.26
70750;BME280;58342;45.568;10.008;2023-01-27T23:54:10;100297.97;;;21.17;48.23
70750;BME280;58342;45.568;10.008;2023-01-27T23:56:38;100298.38;;;21.15;48.49
70750;BME280;58342;45.568;10.008;2023-01-27T23:59:06;100294.16;;;21.14;48.47
